createdAt,value
2022-10-09T00:01:16.280Z,100215.00
2022-10-09T00:03:45.584Z,100216.75
2022-10-09T00:06:21.288Z,100218.56
2022-10-09T00:08:48.433Z,100215.03
2022-10-09T00:11:21.492Z,100210.66
2022-10-09T00:13:49.237Z,100201.84
2022-10-09T00:16:18.497Z,100155.56
2022-10-09T00:18:46.053Z,100104.00
2022-10-09T00:21:33.674Z,100209.84
2022-10-09T00:24:02.993Z,100185.28
2022-10-09T00:26:30.235Z,100202.78
2022-10-09T00:28:57.766Z,100200.16
2022-10-09T00:31:25.075Z,100184.41
2022-10-09T00:33:52.324Z,100115.34
2022-10-09T00:36:22.181Z,100197.50
2022-10-09T00:38:49.889Z,100194.97
2022-10-09T00:41:23.273Z,100191.50
2022-10-09T00:43:53.979Z,100180.19
2022-10-09T00:46:36.083Z,100179.38
2022-10-09T00:49:14.711Z,100150.53
2022-10-09T00:51:44.831Z,100175.00
2022-10-09T00:54:15.051Z,100168.00
2022-10-09T00:56:42.741Z,100166.31
2022-10-09T00:59:11.689Z,100024.59
2022-10-09T01:01:40.592Z,100153.91
2022-10-09T01:04:07.884Z,100172.34
2022-10-09T01:07:05.470Z,100164.50
2022-10-09T01:09:56.892Z,100161.84
2022-10-09T01:12:51.846Z,100169.72
2022-10-09T01:15:33.638Z,100177.41
2022-10-09T01:18:09.454Z,100174.75
2022-10-09T01:21:05.560Z,100116.81
2022-10-09T01:23:32.524Z,100185.03
2022-10-09T01:26:02.113Z,100175.41
2022-10-09T01:28:30.541Z,100175.28
2022-10-09T01:31:00.351Z,100150.94
2022-10-09T01:33:30.710Z,100153.63
2022-10-09T01:35:59.341Z,100148.41
2022-10-09T01:38:29.656Z,100094.16
2022-10-09T01:40:57.887Z,100078.56
2022-10-09T01:43:24.924Z,100145.91
2022-10-09T01:45:52.058Z,100152.00
2022-10-09T01:48:25.198Z,100090.81
2022-10-09T01:51:01.897Z,100151.13
2022-10-09T01:53:30.100Z,100055.75
2022-10-09T01:56:07.576Z,100117.88
2022-10-09T01:58:59.859Z,100139.84
2022-10-09T02:01:33.145Z,100149.41
2022-10-09T02:04:03.197Z,100140.69
2022-10-09T02:06:31.594Z,100115.19
2022-10-09T02:08:59.718Z,100144.97
2022-10-09T02:11:31.936Z,100136.16
2022-10-09T02:13:59.730Z,100146.75
2022-10-09T02:16:37.562Z,100133.38
2022-10-09T02:19:25.558Z,100150.84
2022-10-09T02:22:16.470Z,100148.31
2022-10-09T02:24:44.353Z,100116.81
2022-10-09T02:27:12.743Z,100145.47
2022-10-09T02:29:45.219Z,100102.50
2022-10-09T02:32:12.875Z,100142.81
2022-10-09T02:34:40.070Z,100138.41
2022-10-09T02:37:07.374Z,100135.75
2022-10-09T02:39:34.501Z,100105.09
2022-10-09T02:42:01.649Z,100148.91
2022-10-09T02:44:28.722Z,100127.13
2022-10-09T02:46:55.757Z,100143.69
2022-10-09T02:49:22.834Z,100132.34
2022-10-09T02:51:49.960Z,100130.66
2022-10-09T02:54:17.063Z,100121.91
2022-10-09T02:56:44.062Z,100113.22
2022-10-09T02:59:11.074Z,100052.81
2022-10-09T03:01:38.279Z,100105.31
2022-10-09T03:04:05.567Z,100099.22
2022-10-09T03:06:34.531Z,100116.72
2022-10-09T03:09:01.538Z,100057.22
2022-10-09T03:11:28.737Z,99956.78
2022-10-09T03:13:56.336Z,100111.56
2022-10-09T03:16:25.784Z,100114.09
2022-10-09T03:18:53.806Z,100113.13
2022-10-09T03:21:23.569Z,100104.44
2022-10-09T03:23:51.950Z,100075.09
2022-10-09T03:26:22.448Z,100095.19
2022-10-09T03:28:51.206Z,100058.50
2022-10-09T03:31:47.047Z,100066.47
2022-10-09T03:34:07.482Z,100090.88
2022-10-09T03:36:34.522Z,100094.28
2022-10-09T03:39:01.555Z,99990.84
2022-10-09T03:41:28.554Z,100019.66
2022-10-09T03:43:55.590Z,100090.34
2022-10-09T03:46:22.811Z,100068.50
2022-10-09T03:48:49.813Z,100043.16
2022-10-09T03:51:16.941Z,100070.31
2022-10-09T03:53:44.101Z,100072.06
2022-10-09T03:56:11.152Z,100069.44
2022-10-09T03:58:38.279Z,99994.19
2022-10-09T04:01:05.422Z,100069.34
2022-10-09T04:03:32.673Z,99987.19
2022-10-09T04:05:59.603Z,100061.47
2022-10-09T04:08:26.665Z,99981.13
2022-10-09T04:11:01.237Z,100074.75
2022-10-09T04:13:28.418Z,100057.34
2022-10-09T04:15:56.605Z,100062.59
2022-10-09T04:18:23.880Z,100051.25
2022-10-09T04:20:52.278Z,100066.09
2022-10-09T04:23:20.176Z,100000.66
2022-10-09T04:25:47.414Z,100053.19
2022-10-09T04:28:14.684Z,99998.13
2022-10-09T04:30:41.761Z,100043.66
2022-10-09T04:33:12.809Z,100041.16
2022-10-09T04:35:49.432Z,100038.56
2022-10-09T04:38:16.498Z,99962.69
2022-10-09T04:40:43.893Z,100041.28
2022-10-09T04:43:10.988Z,99960.00
2022-10-09T04:45:41.871Z,99943.38
2022-10-09T04:48:08.881Z,99939.91
2022-10-09T04:50:39.211Z,99961.63
2022-10-09T04:53:06.262Z,100021.34
2022-10-09T04:55:33.264Z,100030.97
2022-10-09T04:58:00.457Z,100030.25
2022-10-09T05:00:27.554Z,99984.03
2022-10-09T05:02:54.820Z,99986.66
2022-10-09T05:05:21.937Z,100020.75
2022-10-09T05:07:49.147Z,100002.44
2022-10-09T05:10:16.153Z,99986.81
2022-10-09T05:12:43.175Z,100009.53
2022-10-09T05:15:10.588Z,99944.94
2022-10-09T05:17:37.596Z,100015.78
2022-10-09T05:20:04.775Z,99994.03
2022-10-09T05:22:31.923Z,100007.22
2022-10-09T05:24:58.952Z,100011.66
2022-10-09T05:27:25.958Z,100005.72
2022-10-09T05:29:53.016Z,100014.47
2022-10-09T05:32:19.965Z,100001.50
2022-10-09T05:34:47.080Z,99998.91
2022-10-09T05:37:14.227Z,100014.72
2022-10-09T05:39:41.241Z,100012.00
2022-10-09T05:42:08.259Z,100008.66
2022-10-09T05:44:35.353Z,100021.78
2022-10-09T05:47:02.441Z,100029.75
2022-10-09T05:49:29.411Z,100021.13
2022-10-09T05:51:56.423Z,100008.13
2022-10-09T05:54:23.423Z,100023.88
2022-10-09T05:56:50.709Z,100016.09
2022-10-09T05:59:22.202Z,100035.31
2022-10-09T06:01:51.810Z,100017.06
2022-10-09T06:04:24.086Z,100017.13
2022-10-09T06:06:51.756Z,100025.84
2022-10-09T06:09:24.490Z,100017.16
2022-10-09T06:11:53.055Z,99986.59
2022-10-09T06:14:22.349Z,99936.06
2022-10-09T06:16:50.337Z,100018.03
2022-10-09T06:19:19.510Z,99998.03
2022-10-09T06:21:47.751Z,100002.44
2022-10-09T06:24:28.693Z,99985.06
2022-10-09T06:26:57.556Z,100006.00
2022-10-09T06:29:24.853Z,99909.28
2022-10-09T06:31:51.862Z,99965.97
2022-10-09T06:34:19.120Z,99996.53
2022-10-09T06:36:46.029Z,99996.56
2022-10-09T06:39:13.389Z,99990.41
2022-10-09T06:41:40.477Z,99975.53
2022-10-09T06:44:25.724Z,99934.56
2022-10-09T06:46:52.716Z,99925.78
2022-10-09T06:49:19.679Z,99963.94
2022-10-09T06:51:46.917Z,99971.41
2022-10-09T06:54:16.350Z,99974.13
2022-10-09T06:56:43.735Z,99980.91
2022-10-09T06:59:11.695Z,99986.50
2022-10-09T07:01:38.816Z,99981.94
2022-10-09T07:04:09.981Z,99959.53
2022-10-09T07:06:39.907Z,99968.81
2022-10-09T07:09:11.951Z,99974.50
2022-10-09T07:11:43.437Z,99961.78
2022-10-09T07:14:12.668Z,99891.56
2022-10-09T07:16:41.873Z,99875.94
2022-10-09T07:19:11.828Z,99955.22
2022-10-09T07:21:41.585Z,99933.50
2022-10-09T07:24:09.190Z,99935.00
2022-10-09T07:26:39.851Z,99939.13
2022-10-09T07:29:09.236Z,99928.59
2022-10-09T07:31:36.366Z,99952.75
2022-10-09T07:34:04.079Z,99941.53
2022-10-09T07:36:31.089Z,99938.97
2022-10-09T07:38:59.253Z,99933.03
2022-10-09T07:41:28.195Z,99922.78
2022-10-09T07:43:55.321Z,99886.25
2022-10-09T07:46:24.348Z,99940.06
2022-10-09T07:48:51.548Z,99930.13
2022-10-09T07:51:26.895Z,99934.22
2022-10-09T07:53:54.079Z,99918.06
2022-10-09T07:56:24.060Z,99935.19
2022-10-09T07:58:52.469Z,99928.47
2022-10-09T08:01:20.768Z,99905.88
2022-10-09T08:03:48.608Z,99926.97
2022-10-09T08:06:16.258Z,99914.16
2022-10-09T08:08:45.629Z,99857.50
2022-10-09T08:11:15.779Z,99925.88
2022-10-09T08:13:43.867Z,99867.31
2022-10-09T08:16:12.203Z,99937.88
2022-10-09T08:18:39.940Z,99941.34
2022-10-09T08:21:16.312Z,99867.66
2022-10-09T08:23:43.651Z,99928.91
2022-10-09T08:26:22.216Z,99921.97
2022-10-09T08:28:59.846Z,99881.03
2022-10-09T08:31:28.188Z,99922.59
2022-10-09T08:33:56.924Z,99922.22
2022-10-09T08:36:25.015Z,99914.19
2022-10-09T08:38:52.499Z,99886.88
2022-10-09T08:41:45.378Z,99893.69
2022-10-09T08:44:33.532Z,99907.28
2022-10-09T08:47:07.471Z,99923.06
2022-10-09T08:50:01.051Z,99910.94
2022-10-09T08:53:03.997Z,99917.47
2022-10-09T08:55:51.156Z,99914.19
2022-10-09T08:58:21.240Z,99912.72
2022-10-09T09:00:54.453Z,99851.56
2022-10-09T09:03:48.037Z,99892.56
2022-10-09T09:06:30.445Z,99901.78
2022-10-09T09:09:07.480Z,99879.69
2022-10-09T09:11:46.324Z,99891.81
2022-10-09T09:14:38.180Z,99901.63
2022-10-09T09:17:23.661Z,99894.84
2022-10-09T09:20:09.050Z,99871.00
2022-10-09T09:22:39.690Z,99885.56
2022-10-09T09:25:29.036Z,99876.84
2022-10-09T09:28:02.989Z,99878.94
2022-10-09T09:30:48.588Z,99869.16
2022-10-09T09:33:23.076Z,99889.19
2022-10-09T09:36:19.331Z,99884.31
2022-10-09T09:39:12.881Z,99867.03
2022-10-09T09:41:33.267Z,99879.94
2022-10-09T09:44:00.166Z,99871.75
2022-10-09T09:46:30.126Z,99877.44
2022-10-09T09:48:57.227Z,99871.47
2022-10-09T09:51:32.228Z,99869.63
2022-10-09T09:54:05.842Z,99867.94
2022-10-09T09:57:07.161Z,99835.13
2022-10-09T09:59:27.080Z,99857.69
2022-10-09T10:02:21.590Z,99859.88
2022-10-09T10:04:52.863Z,99856.75
2022-10-09T10:07:37.347Z,99849.09
2022-10-09T10:10:08.203Z,99864.03
2022-10-09T10:12:44.888Z,99860.81
2022-10-09T10:15:25.853Z,99864.28
2022-10-09T10:18:01.847Z,99801.16
2022-10-09T10:20:32.174Z,99832.75
2022-10-09T10:23:00.622Z,99860.78
2022-10-09T10:25:33.579Z,99863.41
2022-10-09T10:28:17.032Z,99804.75
2022-10-09T10:30:44.662Z,99855.19
2022-10-09T10:33:26.025Z,99740.91
2022-10-09T10:35:56.360Z,99760.47
2022-10-09T10:38:42.212Z,99836.81
2022-10-09T10:41:17.935Z,99767.00
2022-10-09T10:43:48.721Z,99847.78
2022-10-09T10:46:39.133Z,99846.16
2022-10-09T10:49:11.398Z,99694.06
2022-10-09T10:52:13.470Z,99846.59
2022-10-09T10:54:46.659Z,99829.34
2022-10-09T10:57:26.228Z,99825.38
2022-10-09T11:00:06.471Z,99846.41
2022-10-09T11:02:58.405Z,99830.56
2022-10-09T11:05:38.021Z,99826.38
2022-10-09T11:08:40.193Z,99825.47
2022-10-09T11:11:16.189Z,99744.22
2022-10-09T11:14:07.171Z,99797.16
2022-10-09T11:16:44.379Z,99723.69
2022-10-09T11:19:45.258Z,99826.06
2022-10-09T11:22:34.242Z,99824.28
2022-10-09T11:25:26.511Z,99820.81
2022-10-09T11:28:12.730Z,99801.88
2022-10-09T11:30:48.563Z,99819.09
2022-10-09T11:33:44.621Z,99734.94
2022-10-09T11:36:33.173Z,99818.38
2022-10-09T11:39:05.315Z,99828.16
2022-10-09T11:41:35.523Z,99812.75
2022-10-09T11:44:17.629Z,99732.94
2022-10-09T11:47:13.347Z,99812.88
2022-10-09T11:49:49.078Z,99831.19
2022-10-09T11:52:40.802Z,99821.72
2022-10-09T11:55:26.695Z,99816.66
2022-10-09T11:57:53.764Z,99803.06
2022-10-09T12:00:32.944Z,99805.69
2022-10-09T12:03:03.491Z,99738.34
2022-10-09T12:05:45.233Z,99845.38
2022-10-09T12:08:19.196Z,99755.25
2022-10-09T12:11:00.542Z,99834.31
2022-10-09T12:13:53.808Z,99841.41
2022-10-09T12:16:44.143Z,99792.81
2022-10-09T12:19:36.294Z,99836.31
2022-10-09T12:22:19.895Z,99841.88
2022-10-09T12:24:53.334Z,99760.22
2022-10-09T12:27:32.326Z,99834.88
2022-10-09T12:30:11.625Z,99839.22
2022-10-09T12:32:43.651Z,99843.69
2022-10-09T12:35:24.691Z,99841.97
2022-10-09T12:37:52.346Z,99809.13
2022-10-09T12:40:25.543Z,99799.69
2022-10-09T12:42:54.062Z,99847.44
2022-10-09T12:45:27.830Z,99849.28
2022-10-09T12:47:55.004Z,99825.06
2022-10-09T12:50:32.366Z,99756.56
2022-10-09T12:53:02.602Z,99848.78
2022-10-09T12:55:34.674Z,99852.31
2022-10-09T12:58:08.822Z,99840.09
2022-10-09T13:00:36.340Z,99843.69
2022-10-09T13:03:03.403Z,99838.50
2022-10-09T13:05:42.499Z,99841.03
2022-10-09T13:08:27.084Z,99845.47
2022-10-09T13:10:55.143Z,99863.91
2022-10-09T13:13:26.813Z,99874.47
2022-10-09T13:16:02.306Z,99878.94
2022-10-09T13:18:29.965Z,99860.94
2022-10-09T13:21:03.067Z,99862.88
2022-10-09T13:23:33.808Z,99859.69
2022-10-09T13:26:06.197Z,99831.13
2022-10-09T13:28:33.722Z,99902.56
2022-10-09T13:31:08.610Z,99894.81
2022-10-09T13:33:35.739Z,99915.84
2022-10-09T13:36:02.770Z,99924.63
2022-10-09T13:38:34.620Z,99823.75
2022-10-09T13:41:02.088Z,99929.16
2022-10-09T13:43:31.144Z,99923.03
2022-10-09T13:45:58.205Z,99919.63
2022-10-09T13:48:29.648Z,99889.19
2022-10-09T13:50:59.241Z,99920.53
2022-10-09T13:53:27.923Z,99918.78
2022-10-09T13:56:00.026Z,99828.31
2022-10-09T13:58:29.034Z,99918.84
2022-10-09T14:00:56.228Z,99907.53
2022-10-09T14:03:23.346Z,99920.63
2022-10-09T14:05:50.542Z,99929.34
2022-10-09T14:08:17.438Z,99918.91
2022-10-09T14:10:44.730Z,99904.09
2022-10-09T14:13:11.731Z,99932.00
2022-10-09T14:15:40.335Z,99923.34
2022-10-09T14:18:08.196Z,99903.28
2022-10-09T14:20:36.003Z,99898.09
2022-10-09T14:23:03.101Z,99935.50
2022-10-09T14:25:30.051Z,99884.13
2022-10-09T14:27:57.044Z,99933.81
2022-10-09T14:30:24.079Z,99875.47
2022-10-09T14:32:51.409Z,99933.81
2022-10-09T14:35:21.611Z,99905.94
2022-10-09T14:37:48.986Z,99946.00
2022-10-09T14:40:16.330Z,99924.25
2022-10-09T14:42:43.228Z,99953.00
2022-10-09T14:45:10.816Z,99859.78
2022-10-09T14:47:37.840Z,99948.63
2022-10-09T14:50:05.408Z,99946.00
2022-10-09T14:52:32.486Z,99895.47
2022-10-09T14:54:59.619Z,99965.19
2022-10-09T14:57:28.391Z,99971.28
2022-10-09T14:59:57.330Z,99915.44
2022-10-09T15:02:24.412Z,99945.03
2022-10-09T15:04:51.870Z,99987.72
2022-10-09T15:07:19.069Z,99980.75
2022-10-09T15:09:46.083Z,99991.19
2022-10-09T15:12:13.084Z,99972.88
2022-10-09T15:14:40.104Z,99957.19
2022-10-09T15:17:07.849Z,99981.56
2022-10-09T15:19:34.887Z,99997.22
2022-10-09T15:22:02.038Z,99985.88
2022-10-09T15:24:29.034Z,100005.03
2022-10-09T15:26:56.291Z,99992.75
2022-10-09T15:29:23.512Z,99966.59
2022-10-09T15:31:53.823Z,100011.94
2022-10-09T15:34:20.879Z,100004.09
2022-10-09T15:36:47.981Z,100007.56
2022-10-09T15:39:15.633Z,99990.97
2022-10-09T15:41:43.615Z,99997.03
2022-10-09T15:44:28.823Z,100010.16
2022-10-09T15:46:55.769Z,100008.41
2022-10-09T15:49:22.770Z,100016.22
2022-10-09T15:51:49.841Z,100026.66
2022-10-09T15:54:16.959Z,99956.84
2022-10-09T15:56:43.942Z,100002.19
2022-10-09T15:59:13.470Z,100000.44
2022-10-09T16:01:40.787Z,100010.91
2022-10-09T16:04:07.883Z,100011.78
2022-10-09T16:06:35.039Z,100008.28
2022-10-09T16:09:04.138Z,100023.09
2022-10-09T16:11:32.028Z,100021.38
2022-10-09T16:13:59.407Z,100024.88
2022-10-09T16:16:27.847Z,99937.59
2022-10-09T16:18:55.983Z,100004.78
2022-10-09T16:21:28.205Z,100030.94
2022-10-09T16:23:58.809Z,99940.16
2022-10-09T16:26:28.235Z,100038.75
2022-10-09T16:28:55.513Z,100008.22
2022-10-09T16:31:23.825Z,100026.50
2022-10-09T16:33:51.179Z,99985.50
2022-10-09T16:36:19.003Z,100032.56
2022-10-09T16:38:46.211Z,100046.47
2022-10-09T16:41:18.079Z,100035.13
2022-10-09T16:43:47.533Z,100017.63
2022-10-09T16:46:19.632Z,99953.81
2022-10-09T16:48:47.938Z,100037.63
2022-10-09T16:51:17.666Z,100004.41
2022-10-09T16:53:45.120Z,100043.72
2022-10-09T16:56:15.160Z,100038.50
2022-10-09T16:58:43.869Z,100044.53
2022-10-09T17:01:11.985Z,100045.34
2022-10-09T17:03:41.212Z,100039.22
2022-10-09T17:06:10.585Z,99999.91
2022-10-09T17:08:38.099Z,100024.38
2022-10-09T17:11:10.607Z,100031.28
2022-10-09T17:13:38.168Z,99943.16
2022-10-09T17:16:13.197Z,100049.63
2022-10-09T17:18:42.984Z,100050.47
2022-10-09T17:21:12.664Z,100031.28
2022-10-09T17:23:39.719Z,100054.81
2022-10-09T17:26:08.703Z,100044.25
2022-10-09T17:28:36.157Z,100039.97
2022-10-09T17:31:05.143Z,100043.44
2022-10-09T17:33:33.149Z,100029.41
2022-10-09T17:36:00.282Z,99899.38
2022-10-09T17:38:27.343Z,100038.19
2022-10-09T17:40:54.529Z,100059.94
2022-10-09T17:43:21.558Z,100052.94
2022-10-09T17:45:49.434Z,100053.88
2022-10-09T17:48:16.550Z,100047.78
2022-10-09T17:50:55.253Z,100031.22
2022-10-09T17:53:23.027Z,100068.69
2022-10-09T17:55:52.045Z,100051.22
2022-10-09T17:58:20.412Z,99949.03
2022-10-09T18:00:48.431Z,100045.94
2022-10-09T18:03:16.429Z,100049.47
2022-10-09T18:05:49.335Z,99849.56
2022-10-09T18:08:18.856Z,99999.69
2022-10-09T18:10:46.523Z,100065.97
2022-10-09T18:13:14.365Z,100069.50
2022-10-09T18:15:43.296Z,100072.94
2022-10-09T18:18:11.416Z,100072.03
2022-10-09T18:20:39.924Z,100062.41
2022-10-09T18:23:08.315Z,100051.00
2022-10-09T18:25:40.257Z,99965.47
2022-10-09T18:28:07.727Z,100008.25
2022-10-09T18:30:35.001Z,100058.03
2022-10-09T18:33:01.901Z,100070.19
2022-10-09T18:35:30.429Z,100062.34
2022-10-09T18:37:57.619Z,100075.41
2022-10-09T18:40:24.549Z,100086.72
2022-10-09T18:42:52.664Z,100067.50
2022-10-09T18:45:20.382Z,100015.06
2022-10-09T18:47:47.808Z,100064.03
2022-10-09T18:50:15.210Z,100109.38
2022-10-09T18:52:43.569Z,100111.13
2022-10-09T18:55:15.305Z,100111.16
2022-10-09T18:57:42.551Z,99980.19
2022-10-09T19:00:10.131Z,100079.72
2022-10-09T19:02:37.073Z,100090.16
2022-10-09T19:05:04.706Z,100099.78
2022-10-09T19:07:31.793Z,100090.13
2022-10-09T19:09:58.853Z,100013.19
2022-10-09T19:12:27.127Z,100117.16
2022-10-09T19:14:54.175Z,100100.59
2022-10-09T19:17:21.223Z,100089.22
2022-10-09T19:19:48.462Z,100017.59
2022-10-09T19:22:19.035Z,100123.28
2022-10-09T19:24:48.605Z,100056.88
2022-10-09T19:27:15.609Z,100118.00
2022-10-09T19:29:42.701Z,100118.94
2022-10-09T19:32:09.754Z,100121.56
2022-10-09T19:34:36.919Z,100124.19
2022-10-09T19:39:38.361Z,100121.47
2022-10-09T19:42:05.402Z,100136.34
2022-10-09T19:44:32.474Z,100132.91
2022-10-09T19:47:00.354Z,100099.72
2022-10-09T19:49:31.704Z,100125.91
2022-10-09T19:51:58.732Z,100118.94
2022-10-09T19:54:25.731Z,100022.81
2022-10-09T19:56:52.751Z,100072.63
2022-10-09T19:59:19.814Z,100130.31
2022-10-09T20:01:46.983Z,100121.63
2022-10-09T20:04:14.133Z,100132.94
2022-10-09T20:06:43.325Z,100137.31
2022-10-09T20:09:12.158Z,100125.97
2022-10-09T20:11:39.646Z,100133.78
2022-10-09T20:14:07.304Z,100119.81
2022-10-09T20:16:34.532Z,100039.44
2022-10-09T20:19:02.657Z,100136.41
2022-10-09T20:21:31.239Z,100139.88
2022-10-09T20:23:59.501Z,100104.84
2022-10-09T20:26:27.157Z,100129.41
2022-10-09T20:28:54.244Z,100145.16
2022-10-09T20:31:23.796Z,100122.44
2022-10-09T20:33:53.480Z,100143.41
2022-10-09T20:36:28.372Z,100146.03
2022-10-09T20:38:57.473Z,100140.81
2022-10-09T20:41:25.883Z,100043.84
2022-10-09T20:43:53.872Z,100115.56
2022-10-09T20:46:21.908Z,100139.97
2022-10-09T20:48:49.060Z,100129.56
2022-10-09T20:51:16.806Z,100140.81
2022-10-09T20:53:45.112Z,100073.50
2022-10-09T20:56:14.739Z,100140.75
2022-10-09T20:58:42.187Z,100142.56
2022-10-09T21:01:11.641Z,100152.97
2022-10-09T21:03:39.326Z,100116.25
2022-10-09T21:06:08.848Z,100081.31
2022-10-09T21:08:36.355Z,100145.13
2022-10-09T21:11:08.606Z,100138.94
2022-10-09T21:13:36.712Z,100153.75
2022-10-09T21:16:09.116Z,100152.88
2022-10-09T21:18:36.748Z,100156.38
2022-10-09T21:21:10.207Z,100141.47
2022-10-09T21:23:37.792Z,100120.53
2022-10-09T21:26:05.090Z,100123.97
2022-10-09T21:28:32.331Z,100158.03
2022-10-09T21:30:59.740Z,100049.66
2022-10-09T21:33:26.810Z,100074.09
2022-10-09T21:35:55.488Z,100065.38
2022-10-09T21:38:23.765Z,100165.78
2022-10-09T21:40:51.045Z,100140.31
2022-10-09T21:43:18.740Z,100157.72
2022-10-09T21:45:49.760Z,100102.59
2022-10-09T21:48:17.132Z,100122.72
2022-10-09T21:50:45.450Z,100186.41
2022-10-09T21:53:12.728Z,100095.50
2022-10-09T21:55:40.399Z,100174.97
2022-10-09T21:58:08.006Z,100148.69
2022-10-09T22:00:35.032Z,100180.09
2022-10-09T22:03:02.161Z,100189.75
2022-10-09T22:05:29.421Z,100188.72
2022-10-09T22:07:56.715Z,100204.59
2022-10-09T22:10:23.918Z,100201.94
2022-10-09T22:12:51.213Z,100209.63
2022-10-09T22:15:18.382Z,100210.41
2022-10-09T22:17:45.476Z,100001.38
2022-10-09T22:20:13.303Z,100215.59
2022-10-09T22:22:40.900Z,100200.72
2022-10-09T22:25:08.400Z,100192.84
2022-10-09T22:27:35.472Z,100225.16
2022-10-09T22:30:02.740Z,100228.63
2022-10-09T22:32:30.550Z,100224.28
2022-10-09T22:34:57.503Z,100218.19
2022-10-09T22:37:24.655Z,100223.41
2022-10-09T22:39:51.766Z,100139.31
2022-10-09T22:42:19.381Z,100232.00
2022-10-09T22:44:46.495Z,100245.09
2022-10-09T22:47:13.541Z,100186.38
2022-10-09T22:49:40.595Z,100237.16
2022-10-09T22:52:07.672Z,100226.59
2022-10-09T22:54:34.691Z,100260.66
2022-10-09T22:57:01.812Z,100242.19
2022-10-09T22:59:29.145Z,100257.06
2022-10-09T23:01:57.635Z,100243.00
2022-10-09T23:04:25.051Z,100274.47
2022-10-09T23:06:58.028Z,100261.31
2022-10-09T23:09:28.015Z,100263.91
2022-10-09T23:11:55.590Z,100276.19
2022-10-09T23:14:23.052Z,100271.00
2022-10-09T23:16:50.152Z,100265.75
2022-10-09T23:19:17.662Z,100253.50
2022-10-09T23:21:46.075Z,100260.44
2022-10-09T23:24:18.045Z,100264.81
2022-10-09T23:26:51.979Z,100273.56
2022-10-09T23:29:20.752Z,100238.50
2022-10-09T23:31:51.387Z,100267.31
2022-10-09T23:34:18.503Z,100277.03
2022-10-09T23:36:45.527Z,100266.50
2022-10-09T23:39:13.013Z,100272.69
2022-10-09T23:41:40.099Z,100256.06
2022-10-09T23:44:07.090Z,100296.22
2022-10-09T23:46:34.260Z,100291.78
2022-10-09T23:49:01.550Z,100283.84
2022-10-09T23:51:29.519Z,100270.63
2022-10-09T23:53:57.285Z,100285.50
2022-10-09T23:56:30.243Z,100220.47
2022-10-09T23:58:58.764Z,100295.03
